Folly Island, SC current weather conditions

sailwx.info

Wind from 220 at 4 knots gusting 4

Air temperature 15.4° C
Dewpoint 15.4° C

Last reported at 2019-Dec-09 23:00 UTC.
Time now 2019-Dec-09 23:41 UTC

Location: N 32°41' W 079°53'.
View on Google Maps.

See reports from other nearby stations

  
Tides and Currents Weather Stations Pressure Air Temp Water Temp Dewpoint Dewpoint Depression Visibility Wind Speed Wind Dir Waves Ship Positions
date/time (UTC)wind fromknots sea level pressurealtimeterstation pressurevisibilityair tempwater tempwave heightnotes
2019-Dec-09 23:00 220 4 gusting 4 15.4
2019-Dec-09 22:00 180 6 gusting 6 15.9
2019-Dec-09 21:00 150 5 gusting 5 15.9
2019-Dec-09 20:00 130 1 gusting 1 14.3
2019-Dec-09 19:00 050 1 gusting 2 14.4
2019-Dec-09 18:00 080 2 gusting 4 13.6
2019-Dec-09 17:00 050 4 gusting 4 13.3
2019-Dec-09 16:00 010 5 gusting 6 13.2
2019-Dec-09 15:00 010 6 gusting 6 12.7
2019-Dec-09 14:00 020 6 gusting 6 12.7
2019-Dec-09 13:00 040 7 gusting 9 12.1
2019-Dec-09 12:00 050 8 gusting 9 11.7
2019-Dec-09 11:00 060 8 gusting 9 11.9
2019-Dec-09 10:00 080 8 gusting 9 11.8
2019-Dec-09 09:00 070 9 gusting 11 11.3
2019-Dec-09 08:00 040 8 gusting 11 11.4
2019-Dec-09 07:00 060 7 gusting 9 11.0
2019-Dec-09 06:00 050 8 gusting 11 10.9
2019-Dec-09 05:00 050 7 gusting 11 11.0
2019-Dec-09 04:00 050 8 gusting 11 11.4
2019-Dec-09 03:00 040 8 gusting 11 11.6
2019-Dec-09 02:00 040 12 gusting 14 12.3
2019-Dec-09 01:00 040 8 gusting 9 13.3
2019-Dec-09 00:00 020 6 gusting 7 14.1
2019-Dec-08 23:00 040 6 gusting 6 13.5
2019-Dec-08 22:00 070 7 gusting 8 13.7
2019-Dec-08 21:00 060 12 gusting 13 14.1
2019-Dec-08 20:00 030 7 gusting 8 15.4
2019-Dec-08 19:00 010 11 gusting 13 15.3
2019-Dec-08 18:00 350 7 gusting 9 14.8
2019-Dec-08 17:00 030 11 gusting 12 12.0
2019-Dec-08 16:00 010 8 gusting 9 10.7
2019-Dec-08 15:00 020 12 gusting 14 8.9
2019-Dec-08 14:00 020 13 gusting 14 7.5
2019-Dec-08 13:00 020 11 gusting 13 7.3
2019-Dec-08 12:00 010 13 gusting 15 7.7
2019-Dec-08 11:00 020 13 gusting 15 8.6
2019-Dec-08 10:00 020 14 gusting 17 9.0
2019-Dec-08 09:00 030 15 gusting 19 10.1
2019-Dec-08 08:00 020 17 gusting 19 10.0
2019-Dec-08 07:00 030 20 gusting 22 10.7
2019-Dec-08 06:00 030 18 gusting 20 10.7
2019-Dec-08 05:00 030 15 gusting 18 11.1
2019-Dec-08 04:00 030 13 gusting 17 12.1
2019-Dec-08 03:00 030 12 gusting 14 13.2
2019-Dec-08 02:00 040 12 gusting 13 13.5
2019-Dec-08 01:00 050 12 gusting 13 13.8
2019-Dec-08 00:00 050 13 gusting 15 13.9
2019-Dec-07 23:00 060 17 gusting 18 13.8